Time;durP1;ratioP1;P1;durP2;ratioP2;P2;SDS_P1;SDS_P2;PMS_P1;PMS_P2;Temp;Humidity;BMP_temperature;BMP_pressure;BME280_temperature;BME280_humidity;BME280_pressure;Samples;Min_cycle;Max_cycle;Signal;HPM_P1;HPM_P2
2022/12/21 00:01:10;;;;;;;73.00;67.10;;;;;;;;;;10267723;28;20045;-68
2022/12/21 00:06:06;;;;;;;73.65;67.60;;;;;;;;;;10279078;28;20045;-68
2022/12/21 00:11:03;;;;;;;73.53;67.43;;;;;;;;;;10268116;28;20034;-68
2022/12/21 00:16:02;;;;;;;77.18;70.88;;;;;;;;;;10264571;28;20041;-69
2022/12/21 00:21:06;;;;;;;79.05;72.65;;;;;;;;;;10275805;28;20042;-74
2022/12/21 00:26:03;;;;;;;78.47;72.18;;;;;;;;;;10280628;28;20080;-74
2022/12/21 00:31:08;;;;;;;78.65;72.05;;;;;;;;;;10292716;28;20061;-69
2022/12/21 00:36:06;;;;;;;77.28;70.93;;;;;;;;;;10285296;28;20053;-71
2022/12/21 00:41:04;;;;;;;76.18;69.90;;;;;;;;;;10289825;28;20087;-71
2022/12/21 00:46:00;;;;;;;75.13;68.93;;;;;;;;;;10274140;28;20045;-71
2022/12/21 00:51:03;;;;;;;75.78;69.28;;;;;;;;;;10279934;28;20059;-68
2022/12/21 00:56:00;;;;;;;77.53;71.18;;;;;;;;;;10263759;28;20044;-68
2022/12/21 01:00:57;;;;;;;76.85;70.43;;;;;;;;;;10282793;28;20055;-70
2022/12/21 01:05:54;;;;;;;82.78;76.05;;;;;;;;;;10268410;28;20069;-70
2022/12/21 01:11:00;;;;;;;79.15;72.57;;;;;;;;;;10279668;28;20073;-71
2022/12/21 01:15:57;;;;;;;75.78;69.60;;;;;;;;;;10271767;28;20044;-75
2022/12/21 01:20:54;;;;;;;79.28;72.93;;;;;;;;;;10281132;28;20128;-74
2022/12/21 01:25:50;;;;;;;81.72;74.93;;;;;;;;;;10267310;28;20073;-71
2022/12/21 01:30:47;;;;;;;79.53;73.13;;;;;;;;;;10268454;28;20059;-68
2022/12/21 01:35:43;;;;;;;78.07;71.72;;;;;;;;;;10264557;28;20060;-71
2022/12/21 01:40:40;;;;;;;81.30;74.88;;;;;;;;;;10265350;28;20045;-70
2022/12/21 01:45:36;;;;;;;82.05;75.55;;;;;;;;;;10268306;28;20387;-71
2022/12/21 01:50:52;;;;;;;83.25;76.43;;;;;;;;;;10271730;28;20406;-71
2022/12/21 01:55:50;;;;;;;81.15;74.85;;;;;;;;;;10285928;28;20090;-71
2022/12/21 02:00:46;;;;;;;80.45;74.15;;;;;;;;;;10283903;28;20549;-71
2022/12/21 02:05:45;;;;;;;84.32;77.85;;;;;;;;;;10278139;28;20045;-71
2022/12/21 02:10:41;;;;;;;83.43;77.13;;;;;;;;;;10276735;28;20505;-69
2022/12/21 02:15:44;;;;;;;85.80;79.13;;;;;;;;;;10270154;28;20132;-69
2022/12/21 02:20:48;;;;;;;85.80;78.70;;;;;;;;;;10265694;28;20462;-72
2022/12/21 02:26:05;;;;;;;83.53;76.85;;;;;;;;;;10275003;28;20222;-72
2022/12/21 02:31:10;;;;;;;82.45;76.22;;;;;;;;;;10284060;28;20071;-70
2022/12/21 02:36:25;;;;;;;88.07;80.90;;;;;;;;;;10280198;28;20564;-70
2022/12/21 02:41:33;;;;;;;85.72;79.03;;;;;;;;;;10287339;28;20076;-70
2022/12/21 02:46:56;;;;;;;86.22;79.32;;;;;;;;;;10273909;28;20175;-70
2022/12/21 02:52:02;;;;;;;82.22;75.82;;;;;;;;;;10275542;28;20502;-71
2022/12/21 02:56:58;;;;;;;87.95;80.88;;;;;;;;;;10267380;28;20037;-71
2022/12/21 03:02:08;;;;;;;85.72;78.80;;;;;;;;;;10280817;28;20047;-73
2022/12/21 03:07:22;;;;;;;86.47;79.63;;;;;;;;;;10263892;28;20069;-73
2022/12/21 03:12:30;;;;;;;86.78;80.10;;;;;;;;;;10283162;28;20119;-73
2022/12/21 03:17:38;;;;;;;89.40;82.30;;;;;;;;;;10275609;28;20041;-74
2022/12/21 03:22:34;;;;;;;87.63;80.80;;;;;;;;;;10280874;28;20048;-74
2022/12/21 03:27:34;;;;;;;83.25;76.65;;;;;;;;;;10289032;28;20045;-70
2022/12/21 03:32:37;;;;;;;81.45;75.18;;;;;;;;;;10282437;28;20460;-73
2022/12/21 03:37:35;;;;;;;82.05;75.60;;;;;;;;;;10275050;28;20048;-73
2022/12/21 03:42:36;;;;;;;85.30;78.43;;;;;;;;;;10287323;28;20041;-72
2022/12/21 03:47:35;;;;;;;84.68;77.82;;;;;;;;;;10274775;28;20141;-72
2022/12/21 03:52:37;;;;;;;80.43;74.28;;;;;;;;;;10281837;28;20041;-71
2022/12/21 03:57:34;;;;;;;80.35;73.97;;;;;;;;;;10281695;28;20052;-71
2022/12/21 04:02:44;;;;;;;83.10;76.50;;;;;;;;;;10283979;28;20044;-72
2022/12/21 04:07:41;;;;;;;81.63;75.07;;;;;;;;;;10271158;28;20507;-71
2022/12/21 04:12:39;;;;;;;86.07;78.97;;;;;;;;;;10280613;28;20136;-70
2022/12/21 04:17:35;;;;;;;81.22;74.43;;;;;;;;;;10275862;28;20044;-69
2022/12/21 04:33:23;;;;;;;85.78;78.38;;;;;;;;;;10276031;28;20094;-72
2022/12/21 04:38:19;;;;;;;81.70;74.53;;;;;;;;;;10286511;28;20041;-72
2022/12/21 04:43:15;;;;;;;87.10;79.35;;;;;;;;;;10280048;28;20705;-70
2022/12/21 04:48:12;;;;;;;84.72;77.30;;;;;;;;;;10282208;28;20067;-71
2022/12/21 04:53:08;;;;;;;81.07;74.13;;;;;;;;;;10281154;28;20041;-71
2022/12/21 04:58:05;;;;;;;87.00;79.60;;;;;;;;;;10274322;28;20120;-69
2022/12/21 05:03:01;;;;;;;88.82;81.32;;;;;;;;;;10268840;28;20052;-68
2022/12/21 05:07:58;;;;;;;88.95;81.75;;;;;;;;;;10273784;28;20526;-69
2022/12/21 05:12:54;;;;;;;88.07;80.78;;;;;;;;;;10281628;28;20663;-69
2022/12/21 05:17:51;;;;;;;89.10;81.68;;;;;;;;;;10258166;28;20451;-70
2022/12/21 05:22:47;;;;;;;91.53;83.82;;;;;;;;;;10285441;28;20553;-71
2022/12/21 05:27:44;;;;;;;89.15;81.50;;;;;;;;;;10290864;28;20072;-70
2022/12/21 05:32:40;;;;;;;89.95;82.35;;;;;;;;;;10291131;28;20482;-73
2022/12/21 05:37:36;;;;;;;89.63;82.47;;;;;;;;;;10249376;28;20045;-73
2022/12/21 05:42:32;;;;;;;89.25;81.53;;;;;;;;;;10246680;28;20538;-74
2022/12/21 05:47:29;;;;;;;88.50;80.80;;;;;;;;;;10261209;28;20056;-73
2022/12/21 05:52:25;;;;;;;94.22;86.00;;;;;;;;;;10250880;28;20125;-73
2022/12/21 05:57:22;;;;;;;91.85;83.80;;;;;;;;;;10246097;28;20124;-70
2022/12/21 06:02:18;;;;;;;93.60;85.47;;;;;;;;;;10262577;28;20563;-69
2022/12/21 06:07:14;;;;;;;91.25;82.82;;;;;;;;;;10253271;28;20805;-69
2022/12/21 06:12:10;;;;;;;92.25;84.18;;;;;;;;;;10243906;28;20996;-71
2022/12/21 06:17:07;;;;;;;91.90;83.68;;;;;;;;;;10234177;28;20052;-72
2022/12/21 06:22:03;;;;;;;92.05;83.47;;;;;;;;;;10256428;28;20048;-72
2022/12/21 06:26:59;;;;;;;93.22;85.20;;;;;;;;;;10266542;28;20789;-70
2022/12/21 06:31:56;;;;;;;96.50;87.10;;;;;;;;;;10245794;28;20045;-71
2022/12/21 06:36:52;;;;;;;95.60;87.03;;;;;;;;;;10239588;28;20045;-71
2022/12/21 06:41:48;;;;;;;95.85;87.60;;;;;;;;;;10251970;28;20184;-71
2022/12/21 06:46:45;;;;;;;97.72;88.85;;;;;;;;;;10254005;28;20075;-71
2022/12/21 06:51:41;;;;;;;89.88;82.15;;;;;;;;;;10260081;28;20094;-71
2022/12/21 06:56:37;;;;;;;86.22;78.40;;;;;;;;;;10260454;28;20056;-72
2022/12/21 07:01:34;;;;;;;90.63;82.75;;;;;;;;;;10269053;28;20057;-71
2022/12/21 07:06:31;;;;;;;88.18;80.40;;;;;;;;;;10273943;28;20570;-71
2022/12/21 07:11:29;;;;;;;88.15;80.65;;;;;;;;;;10266966;28;20045;-70
2022/12/21 07:16:25;;;;;;;92.40;84.32;;;;;;;;;;10265846;28;20048;-71
2022/12/21 07:21:22;;;;;;;91.85;83.75;;;;;;;;;;10251111;28;20044;-72
2022/12/21 07:26:19;;;;;;;90.53;82.43;;;;;;;;;;10277539;28;20036;-70
2022/12/21 07:31:22;;;;;;;95.90;86.78;;;;;;;;;;10257487;28;20136;-70
2022/12/21 07:36:19;;;;;;;96.43;87.07;;;;;;;;;;10254969;28;20628;-71
2022/12/21 07:41:16;;;;;;;99.07;89.70;;;;;;;;;;10258450;28;20083;-70
2022/12/21 07:46:13;;;;;;;100.47;91.75;;;;;;;;;;10260455;28;20045;-71
2022/12/21 07:51:10;;;;;;;95.22;87.03;;;;;;;;;;10262714;28;20502;-71
2022/12/21 07:56:14;;;;;;;100.28;91.65;;;;;;;;;;10237866;28;20132;-70
2022/12/21 08:01:12;;;;;;;99.20;90.53;;;;;;;;;;10264100;28;20044;-69
2022/12/21 08:06:09;;;;;;;103.75;94.43;;;;;;;;;;10252441;28;20172;-69
2022/12/21 08:11:09;;;;;;;102.20;93.47;;;;;;;;;;10265743;28;20037;-70
2022/12/21 08:16:06;;;;;;;102.03;92.55;;;;;;;;;;10263899;28;20498;-69
2022/12/21 08:21:02;;;;;;;96.57;87.28;;;;;;;;;;10280373;28;20048;-69
2022/12/21 08:26:00;;;;;;;95.90;87.10;;;;;;;;;;10265628;28;20144;-69
2022/12/21 08:31:00;;;;;;;98.38;89.53;;;;;;;;;;10279826;28;20048;-69
2022/12/21 08:35:57;;;;;;;96.10;87.88;;;;;;;;;;10278303;28;20131;-71
2022/12/21 08:40:53;;;;;;;101.70;92.72;;;;;;;;;;10269683;28;20095;-69
2022/12/21 08:45:49;;;;;;;99.70;91.05;;;;;;;;;;10251530;28;20101;-69
2022/12/21 08:50:52;;;;;;;101.03;92.20;;;;;;;;;;10280379;28;20080;-69
2022/12/21 08:55:48;;;;;;;103.05;94.07;;;;;;;;;;10272366;28;20079;-71
2022/12/21 09:00:46;;;;;;;101.82;93.25;;;;;;;;;;10252636;28;20079;-69
2022/12/21 09:05:42;;;;;;;104.70;95.03;;;;;;;;;;10256782;28;20041;-69
2022/12/21 09:10:39;;;;;;;98.88;90.32;;;;;;;;;;10245545;28;20061;-69
2022/12/21 09:15:41;;;;;;;102.90;94.32;;;;;;;;;;10256492;28;20052;-70
2022/12/21 09:20:38;;;;;;;102.50;93.30;;;;;;;;;;10248323;28;20513;-68
2022/12/21 09:25:34;;;;;;;105.20;96.05;;;;;;;;;;10253438;28;20140;-71
2022/12/21 09:30:30;;;;;;;100.13;91.50;;;;;;;;;;10262100;28;20051;-70
2022/12/21 09:35:27;;;;;;;104.45;96.05;;;;;;;;;;10230396;28;20080;-69
2022/12/21 09:40:24;;;;;;;102.20;93.05;;;;;;;;;;10246435;28;20045;-71
2022/12/21 09:45:21;;;;;;;104.90;96.07;;;;;;;;;;10268361;28;20057;-71
2022/12/21 09:50:20;;;;;;;102.03;93.68;;;;;;;;;;10261739;28;20086;-71
2022/12/21 09:55:17;;;;;;;103.28;94.82;;;;;;;;;;10258084;28;20040;-71
2022/12/21 10:00:22;;;;;;;102.10;93.57;;;;;;;;;;10254758;28;20041;-71
2022/12/21 10:05:25;;;;;;;106.38;97.78;;;;;;;;;;10247323;28;20132;-71
2022/12/21 10:10:27;;;;;;;103.47;95.32;;;;;;;;;;10253459;28;20041;-70
2022/12/21 10:15:24;;;;;;;104.10;96.05;;;;;;;;;;10258855;28;20044;-71
2022/12/21 10:20:44;;;;;;;104.05;95.68;;;;;;;;;;10261438;28;20045;-71
2022/12/21 10:25:43;;;;;;;101.40;93.00;;;;;;;;;;10260512;28;20045;-70
2022/12/21 10:30:41;;;;;;;102.53;95.10;;;;;;;;;;10272401;28;20124;-71
2022/12/21 10:35:38;;;;;;;106.43;98.47;;;;;;;;;;10264056;28;20115;-70
2022/12/21 10:40:36;;;;;;;106.88;98.57;;;;;;;;;;10269201;28;20048;-70
2022/12/21 10:45:32;;;;;;;104.90;97.25;;;;;;;;;;10274544;28;20475;-71
2022/12/21 10:50:30;;;;;;;102.88;94.72;;;;;;;;;;10264412;28;20049;-71
2022/12/21 10:55:34;;;;;;;103.13;95.15;;;;;;;;;;10270826;28;20071;-71
2022/12/21 11:00:30;;;;;;;102.57;94.43;;;;;;;;;;10269686;28;20040;-71
2022/12/21 11:05:27;;;;;;;103.68;95.53;;;;;;;;;;10263981;28;20056;-71
2022/12/21 11:12:20;;;;;;;100.47;92.35;;;;;;;;;;10247071;27;20544;-69
2022/12/21 11:17:21;;;;;;;100.90;92.80;;;;;;;;;;10209794;28;20117;-70
2022/12/21 11:22:24;;;;;;;97.85;90.20;;;;;;;;;;10204905;28;20771;-70
2022/12/21 11:27:43;;;;;;;102.00;93.97;;;;;;;;;;10200244;28;20046;-70
2022/12/21 11:32:44;;;;;;;99.97;91.70;;;;;;;;;;10219272;28;20200;-70
2022/12/21 11:37:40;;;;;;;102.15;93.90;;;;;;;;;;10195919;28;20056;-70
2022/12/21 11:42:57;;;;;;;101.65;93.07;;;;;;;;;;10224486;28;20197;-70
2022/12/21 11:48:18;;;;;;;99.97;91.10;;;;;;;;;;10199821;28;20037;-70
2022/12/21 11:53:14;;;;;;;104.18;95.93;;;;;;;;;;10215602;28;20453;-70
2022/12/21 11:58:28;;;;;;;99.70;91.97;;;;;;;;;;10217688;28;20132;-71
2022/12/21 12:03:24;;;;;;;93.40;85.75;;;;;;;;;;10215869;28;20539;-70
2022/12/21 12:08:33;;;;;;;88.38;81.18;;;;;;;;;;10216953;28;20323;-70
2022/12/21 12:13:38;;;;;;;82.00;74.45;;;;;;;;;;10207467;28;20054;-70
2022/12/21 12:18:52;;;;;;;76.18;69.70;;;;;;;;;;10215222;28;20060;-69
2022/12/21 12:24:05;;;;;;;73.72;67.22;;;;;;;;;;10203832;28;20136;-69
2022/12/21 12:29:13;;;;;;;73.57;67.50;;;;;;;;;;10190250;28;20050;-70
2022/12/21 12:34:09;;;;;;;70.35;64.10;;;;;;;;;;10182047;28;20048;-69
2022/12/21 12:39:12;;;;;;;78.15;71.20;;;;;;;;;;10190367;28;20108;-70
2022/12/21 12:44:14;;;;;;;76.20;68.57;;;;;;;;;;10191946;28;20133;-70
2022/12/21 12:49:16;;;;;;;63.10;57.30;;;;;;;;;;10185349;28;20050;-70
2022/12/21 12:54:12;;;;;;;73.47;67.00;;;;;;;;;;10191049;28;20044;-71
2022/12/21 12:59:19;;;;;;;71.15;64.65;;;;;;;;;;10190990;28;20403;-70
2022/12/21 13:04:22;;;;;;;64.57;58.58;;;;;;;;;;10189714;28;20129;-70
2022/12/21 13:09:27;;;;;;;66.40;60.40;;;;;;;;;;10187947;28;20136;-71
2022/12/21 13:14:29;;;;;;;68.05;62.13;;;;;;;;;;10188789;28;20502;-70
2022/12/21 13:19:30;;;;;;;66.57;60.58;;;;;;;;;;10171895;28;20054;-70
2022/12/21 13:24:34;;;;;;;71.10;64.63;;;;;;;;;;10175055;28;20508;-70
2022/12/21 13:29:40;;;;;;;68.13;61.90;;;;;;;;;;10184279;28;20598;-71
2022/12/21 13:34:55;;;;;;;67.85;61.42;;;;;;;;;;10179386;28;20046;-69
2022/12/21 13:40:00;;;;;;;75.18;68.15;;;;;;;;;;10169967;28;20085;-70
2022/12/21 13:44:59;;;;;;;75.82;69.25;;;;;;;;;;10177234;28;20038;-70
2022/12/21 13:50:05;;;;;;;72.97;65.72;;;;;;;;;;10164309;28;20125;-69
2022/12/21 13:55:01;;;;;;;70.43;63.53;;;;;;;;;;10174635;28;20054;-70
2022/12/21 14:00:20;;;;;;;72.93;65.78;;;;;;;;;;10173701;28;20049;-71
2022/12/21 14:05:24;;;;;;;72.15;64.93;;;;;;;;;;10192465;28;20058;-71
2022/12/21 14:10:43;;;;;;;68.85;62.13;;;;;;;;;;10204365;28;20772;-71
2022/12/21 14:15:57;;;;;;;62.70;56.53;;;;;;;;;;10187215;28;20500;-71
2022/12/21 14:20:58;;;;;;;67.15;60.35;;;;;;;;;;10179511;28;20064;-71
2022/12/21 14:25:56;;;;;;;66.22;59.00;;;;;;;;;;10192942;28;20137;-71
2022/12/21 14:31:04;;;;;;;66.20;59.22;;;;;;;;;;10185375;28;20057;-71
2022/12/21 14:36:09;;;;;;;67.53;60.08;;;;;;;;;;10182794;28;20073;-71
2022/12/21 14:41:12;;;;;;;70.70;63.45;;;;;;;;;;10182623;28;20042;-71
2022/12/21 14:46:25;;;;;;;68.72;61.65;;;;;;;;;;10180200;28;20411;-72
2022/12/21 14:51:36;;;;;;;68.60;61.75;;;;;;;;;;10176553;28;20092;-71
2022/12/21 14:56:34;;;;;;;65.90;59.65;;;;;;;;;;10190721;28;20046;-71
2022/12/21 15:01:43;;;;;;;72.15;64.93;;;;;;;;;;10186056;28;20052;-71
2022/12/21 15:06:41;;;;;;;69.45;62.38;;;;;;;;;;10181502;28;20050;-71
2022/12/21 15:12:04;;;;;;;68.22;61.60;;;;;;;;;;10185928;28;20042;-71
2022/12/21 15:17:02;;;;;;;69.65;62.70;;;;;;;;;;10169827;28;20050;-71
2022/12/21 15:22:08;;;;;;;63.45;57.42;;;;;;;;;;10177506;28;20497;-72
2022/12/21 15:27:16;;;;;;;62.53;56.63;;;;;;;;;;10189566;28;20054;-71
2022/12/21 15:32:18;;;;;;;65.32;58.53;;;;;;;;;;10192024;28;20042;-71
2022/12/21 15:37:15;;;;;;;;;;;;;;;;;;10185273;28;20523;-71
2022/12/21 15:42:31;;;;;;;63.58;57.00;;;;;;;;;;10180787;28;20318;-71
2022/12/21 15:47:43;;;;;;;65.30;58.72;;;;;;;;;;10175325;28;20077;-71
2022/12/21 15:52:41;;;;;;;65.65;59.10;;;;;;;;;;10210639;28;20050;-71
2022/12/21 15:57:41;;;;;;;69.22;62.92;;;;;;;;;;10199989;28;20046;-70
2022/12/21 16:02:40;;;;;;;69.95;63.17;;;;;;;;;;10200418;28;20686;-71
2022/12/21 16:07:41;;;;;;;73.10;66.10;;;;;;;;;;10188436;28;20058;-71
2022/12/21 16:12:41;;;;;;;75.55;67.95;;;;;;;;;;10200283;28;20460;-73
2022/12/21 16:17:43;;;;;;;76.30;68.95;;;;;;;;;;10191198;28;20487;-71
2022/12/21 16:22:39;;;;;;;76.05;69.20;;;;;;;;;;10203607;28;20461;-72
2022/12/21 16:27:36;;;;;;;81.88;73.78;;;;;;;;;;10193148;28;20435;-71
2022/12/21 16:32:32;;;;;;;85.53;77.22;;;;;;;;;;10194308;28;20046;-71
2022/12/21 16:37:29;;;;;;;84.05;76.05;;;;;;;;;;10189968;28;20512;-71
2022/12/21 16:42:27;;;;;;;90.25;81.43;;;;;;;;;;10187024;28;20045;-70
2022/12/21 16:47:25;;;;;;;85.82;77.82;;;;;;;;;;10195215;28;20046;-71
2022/12/21 16:52:39;;;;;;;87.85;79.72;;;;;;;;;;10176619;28;20049;-72
2022/12/21 16:57:36;;;;;;;89.45;81.00;;;;;;;;;;10181412;28;20081;-71
2022/12/21 17:02:34;;;;;;;87.05;78.43;;;;;;;;;;10188489;28;20061;-71
2022/12/21 17:07:38;;;;;;;86.95;78.78;;;;;;;;;;10186288;28;20053;-71
2022/12/21 17:12:34;;;;;;;91.68;82.90;;;;;;;;;;10175227;28;20050;-71
2022/12/21 17:17:42;;;;;;;96.05;86.97;;;;;;;;;;10183191;28;20161;-71
2022/12/21 17:22:53;;;;;;;90.45;81.20;;;;;;;;;;10202091;28;20049;-71
2022/12/21 17:27:51;;;;;;;91.70;82.40;;;;;;;;;;10197634;28;20411;-71
2022/12/21 17:32:49;;;;;;;91.07;81.95;;;;;;;;;;10187354;28;20080;-71
2022/12/21 17:37:46;;;;;;;93.93;85.13;;;;;;;;;;10188320;28;20042;-71
2022/12/21 17:42:42;;;;;;;92.25;83.22;;;;;;;;;;10188756;28;20048;-71
2022/12/21 17:47:41;;;;;;;94.03;85.20;;;;;;;;;;10182544;28;20569;-71
2022/12/21 17:52:37;;;;;;;90.53;81.68;;;;;;;;;;10189971;28;20533;-71
2022/12/21 17:57:34;;;;;;;91.00;82.07;;;;;;;;;;10183432;28;20891;-71
2022/12/21 18:02:30;;;;;;;95.53;86.35;;;;;;;;;;10191222;28;20471;-71
2022/12/21 18:07:29;;;;;;;98.88;89.57;;;;;;;;;;10179518;28;20038;-71
2022/12/21 18:12:25;;;;;;;97.25;88.65;;;;;;;;;;10190911;28;20069;-71
2022/12/21 18:17:21;;;;;;;100.10;90.93;;;;;;;;;;10188377;28;20080;-71
2022/12/21 18:22:18;;;;;;;97.80;89.22;;;;;;;;;;10194432;28;20065;-71
2022/12/21 18:27:19;;;;;;;101.07;91.88;;;;;;;;;;10189011;28;20065;-71
2022/12/21 18:32:15;;;;;;;101.82;92.50;;;;;;;;;;10186229;28;20051;-71
2022/12/21 18:37:13;;;;;;;98.65;90.53;;;;;;;;;;10185918;28;20042;-71
2022/12/21 18:42:10;;;;;;;99.20;90.43;;;;;;;;;;10183886;28;20474;-71
2022/12/21 18:47:08;;;;;;;94.18;86.32;;;;;;;;;;10181111;28;20049;-70
2022/12/21 18:52:11;;;;;;;93.03;85.22;;;;;;;;;;10192851;28;20077;-71
2022/12/21 18:57:15;;;;;;;89.40;82.07;;;;;;;;;;10197549;28;20053;-71
2022/12/21 19:02:28;;;;;;;89.38;81.63;;;;;;;;;;10170612;28;20084;-71
2022/12/21 19:07:24;;;;;;;89.65;82.53;;;;;;;;;;10189381;28;20081;-71
2022/12/21 19:12:20;;;;;;;87.85;80.50;;;;;;;;;;10187991;28;20081;-71
2022/12/21 19:17:22;;;;;;;88.53;80.95;;;;;;;;;;10191433;28;20046;-71
2022/12/21 19:22:22;;;;;;;87.00;79.27;;;;;;;;;;10191305;28;20130;-71
2022/12/21 19:27:19;;;;;;;87.90;80.45;;;;;;;;;;10198952;28;20048;-71
2022/12/21 19:32:15;;;;;;;86.10;78.72;;;;;;;;;;10199480;28;20045;-71
2022/12/21 19:37:16;;;;;;;86.95;78.88;;;;;;;;;;10198345;28;20049;-70
2022/12/21 19:42:31;;;;;;;84.28;76.90;;;;;;;;;;10192599;28;20411;-71
2022/12/21 19:47:28;;;;;;;86.38;78.72;;;;;;;;;;10194955;28;20547;-71
2022/12/21 19:52:25;;;;;;;82.22;75.15;;;;;;;;;;10192881;28;20053;-71
2022/12/21 19:57:23;;;;;;;85.63;78.10;;;;;;;;;;10187501;28;20049;-71
2022/12/21 20:02:23;;;;;;;87.25;80.00;;;;;;;;;;10199257;28;20068;-71
2022/12/21 20:07:20;;;;;;;85.13;77.50;;;;;;;;;;10197063;28;20081;-71
2022/12/21 20:12:16;;;;;;;85.28;78.15;;;;;;;;;;10194987;28;21821;-71
2022/12/21 20:17:16;;;;;;;87.28;80.03;;;;;;;;;;10190272;28;20048;-71
2022/12/21 20:22:13;;;;;;;85.15;78.40;;;;;;;;;;10193814;28;20046;-71
2022/12/21 20:27:17;;;;;;;86.88;80.28;;;;;;;;;;10204180;28;20045;-71
2022/12/21 20:32:14;;;;;;;80.65;74.45;;;;;;;;;;10175356;28;20046;-71
2022/12/21 20:37:11;;;;;;;83.82;77.57;;;;;;;;;;10183725;28;20045;-71
2022/12/21 20:47:32;;;;;;;78.33;72.43;;;;;;;;;;10201532;28;20133;-71
2022/12/21 20:52:28;;;;;;;77.63;71.45;;;;;;;;;;10209035;28;20049;-71
2022/12/21 20:57:24;;;;;;;78.70;72.50;;;;;;;;;;10190069;28;20163;-70
2022/12/21 21:02:23;;;;;;;73.45;67.60;;;;;;;;;;10191446;28;20104;-70
2022/12/21 21:07:39;;;;;;;75.45;69.70;;;;;;;;;;10197169;28;20554;-70
2022/12/21 21:12:35;;;;;;;72.78;67.35;;;;;;;;;;10190337;28;20727;-70
2022/12/21 21:17:32;;;;;;;74.10;68.40;;;;;;;;;;10201358;28;20049;-70
2022/12/21 21:27:47;;;;;;;74.55;68.70;;;;;;;;;;10197077;28;20133;-70
2022/12/21 21:32:44;;;;;;;79.88;73.07;;;;;;;;;;10187584;28;20282;-69
2022/12/21 21:41:31;;;;;;;74.85;69.03;;;;;;;;;;10188261;28;20123;-71
2022/12/21 21:42:56;;;;;;;75.63;69.65;;;;;;;;;;10183344;28;20157;-65
2022/12/21 21:47:52;;;;;;;73.10;67.25;;;;;;;;;;10179843;28;20118;-74
2022/12/21 21:52:49;;;;;;;68.10;62.15;;;;;;;;;;10174645;28;20053;-74
2022/12/21 21:57:50;;;;;;;67.65;61.90;;;;;;;;;;10169195;28;20041;-73
2022/12/21 22:02:50;;;;;;;69.45;63.38;;;;;;;;;;10203070;28;20042;-75
2022/12/21 22:07:47;;;;;;;73.13;66.80;;;;;;;;;;10188204;28;20046;-73
2022/12/21 22:12:45;;;;;;;71.78;65.47;;;;;;;;;;10190782;28;20050;-73
2022/12/21 22:17:42;;;;;;;74.13;67.38;;;;;;;;;;10191397;28;20133;-72
2022/12/21 22:33:10;;;;;;;72.32;65.88;;;;;;;;;;10180321;28;20061;-76
2022/12/21 22:43:23;;;;;;;75.05;68.53;;;;;;;;;;10189692;28;20050;-75
2022/12/21 22:48:20;;;;;;;72.32;66.15;;;;;;;;;;10193631;28;20073;-75
2022/12/21 22:53:20;;;;;;;75.57;69.15;;;;;;;;;;10195286;28;20042;-76
2022/12/21 22:58:24;;;;;;;71.38;65.10;;;;;;;;;;10188427;28;20472;-75
2022/12/21 23:03:21;;;;;;;71.88;65.97;;;;;;;;;;10186109;28;20124;-75
2022/12/21 23:08:17;;;;;;;71.22;65.15;;;;;;;;;;10197892;28;20463;-73
2022/12/21 23:18:33;;;;;;;72.03;66.10;;;;;;;;;;10189142;28;20121;-71
2022/12/21 23:28:44;;;;;;;67.70;62.13;;;;;;;;;;10183883;28;20050;-74
2022/12/21 23:44:10;;;;;;;67.20;61.45;;;;;;;;;;10186289;28;20774;-65
